Time;durP1;ratioP1;P1;durP2;ratioP2;P2;SDS_P1;SDS_P2;PMS_P1;PMS_P2;Temp;Humidity;BMP_temperature;BMP_pressure;BME280_temperature;BME280_humidity;BME280_pressure;Samples;Min_cycle;Max_cycle;Signal;HPM_P1;HPM_P2
2022/09/06 00:00:08;;;;;;;7.68;2.80;;;;;;;23.23;41.65;99193.87;4488463;31;20093;-79
2022/09/06 00:02:34;;;;;;;7.62;2.67;;;;;;;23.19;41.77;99192.50;4488544;31;20512;-79
2022/09/06 00:05:00;;;;;;;6.93;2.67;;;;;;;23.21;41.74;99195.88;4488403;31;20507;-79
2022/09/06 00:07:26;;;;;;;8.23;2.92;;;;;;;23.18;41.91;99189.00;4502760;31;20103;-79
2022/09/06 00:09:51;;;;;;;5.03;2.35;;;;;;;23.20;41.93;99189.69;4502630;31;20120;-79
2022/09/06 00:12:16;;;;;;;8.07;2.85;;;;;;;23.21;41.92;99191.34;4488293;31;20477;-79
2022/09/06 00:14:42;;;;;;;8.45;3.08;;;;;;;23.18;42.01;99186.31;4502681;31;20143;-79
2022/09/06 00:17:07;;;;;;;7.18;2.70;;;;;;;23.16;42.07;99180.25;4502547;31;20077;-79
2022/09/06 00:19:33;;;;;;;8.43;2.72;;;;;;;23.21;42.02;99177.06;4502649;31;20106;-79
2022/09/06 00:21:58;;;;;;;7.05;2.47;;;;;;;23.21;42.08;99179.75;4502611;31;20079;-80
2022/09/06 00:24:23;;;;;;;7.12;2.67;;;;;;;23.17;42.10;99177.37;4475002;31;20140;-80
2022/09/06 00:26:49;;;;;;;7.35;2.67;;;;;;;23.16;42.07;99183.75;4488288;31;20107;-80
2022/09/06 00:29:14;;;;;;;10.00;2.83;;;;;;;23.18;42.15;99180.94;4488221;31;20104;-80
2022/09/06 00:31:40;;;;;;;9.82;2.60;;;;;;;23.15;42.17;99179.38;4502513;31;20088;-80
2022/09/06 00:34:05;;;;;;;8.30;2.60;;;;;;;23.19;42.13;99187.97;4502566;31;20072;-80
2022/09/06 00:36:31;;;;;;;7.10;2.47;;;;;;;23.18;42.17;99183.63;4502323;31;20107;-80
2022/09/06 00:38:57;;;;;;;6.78;2.45;;;;;;;23.20;42.14;99184.31;4488071;31;20108;-80
2022/09/06 00:41:22;;;;;;;8.35;2.80;;;;;;;23.19;42.22;99182.59;4502319;31;20087;-80
2022/09/06 00:43:48;;;;;;;6.78;2.78;;;;;;;23.18;42.21;99175.56;4487969;31;20080;-80
2022/09/06 00:46:17;;;;;;;6.65;2.50;;;;;;;23.21;42.20;99183.28;4487993;31;20081;-80
2022/09/06 00:48:44;;;;;;;7.35;2.53;;;;;;;23.15;42.67;99181.22;4487783;31;20451;-80
2022/09/06 00:51:12;;;;;;;6.95;2.60;;;;;;;22.95;43.10;99185.87;4502380;31;20131;-80
2022/09/06 00:53:38;;;;;;;7.93;2.80;;;;;;;23.04;42.89;99186.81;4487821;31;20080;-80
2022/09/06 00:56:03;;;;;;;7.60;2.95;;;;;;;23.07;42.85;99178.47;4487728;31;20095;-79
2022/09/06 00:58:29;;;;;;;9.85;2.80;;;;;;;23.08;42.75;99181.00;4487575;31;20100;-80
2022/09/06 01:00:54;;;;;;;7.28;2.60;;;;;;;23.02;42.82;99184.25;4474680;31;20156;-80
2022/09/06 01:03:22;;;;;;;6.53;2.60;;;;;;;23.07;42.81;99195.44;4502067;31;20137;-80
2022/09/06 01:06:00;;;;;;;;;;;;;;;23.01;43.19;99193.34;4502418;31;20075;-79
2022/09/06 01:08:37;;;;;;;7.03;2.78;;;;;;;23.13;42.95;99184.06;4502183;31;19999;-80
2022/09/06 01:11:21;;;;;;;8.20;3.08;;;;;;;23.11;43.13;99182.53;4501893;31;20122;-80
2022/09/06 01:13:47;;;;;;;7.18;2.62;;;;;;;23.07;43.05;99190.06;4487663;31;20458;-80
2022/09/06 01:16:31;;;;;;;8.07;3.00;;;;;;;23.01;43.22;99179.06;4487350;31;20110;-80
2022/09/06 01:19:11;;;;;;;6.57;2.55;;;;;;;23.03;43.24;99183.31;4501843;31;20488;-79
2022/09/06 01:21:54;;;;;;;8.55;3.03;;;;;;;23.00;43.35;99180.88;4501958;31;20390;-80
2022/09/06 01:24:47;;;;;;;8.18;2.72;;;;;;;22.98;43.26;99190.94;4487404;31;20189;-80
2022/09/06 01:27:18;;;;;;;8.40;2.60;;;;;;;22.87;42.99;99189.34;4501932;31;20083;-80
2022/09/06 01:29:49;;;;;;;8.25;3.00;;;;;;;22.91;43.21;99179.97;4501631;31;20447;-80
2022/09/06 01:32:33;;;;;;;6.72;2.70;;;;;;;22.94;43.23;99181.50;4487502;31;20111;-80
2022/09/06 01:35:37;;;;;;;8.57;2.97;;;;;;;22.93;43.78;99180.66;4501762;31;20108;-80
2022/09/06 01:38:03;;;;;;;7.05;2.78;;;;;;;23.02;43.82;99183.41;4421688;32;20094;-80
2022/09/06 01:40:28;;;;;;;11.23;3.15;;;;;;;22.97;43.91;99178.53;4408929;32;20167;-80
2022/09/06 01:42:55;;;;;;;7.62;2.97;;;;;;;22.97;43.79;99178.53;4421648;32;20567;-80
2022/09/06 01:45:29;;;;;;;7.97;2.97;;;;;;;22.92;43.60;99181.66;4421810;32;20116;-80
2022/09/06 01:48:15;;;;;;;7.20;2.65;;;;;;;22.88;43.52;99176.75;4421185;32;20300;-80
2022/09/06 01:50:46;;;;;;;7.07;2.70;;;;;;;22.91;43.19;99176.44;4408838;32;20106;-80
2022/09/06 01:53:24;;;;;;;8.15;3.03;;;;;;;22.85;43.64;99177.03;4421420;32;20114;-80
2022/09/06 01:56:05;;;;;;;6.80;2.67;;;;;;;22.80;43.64;99174.00;4409060;32;20120;-80
2022/09/06 01:58:42;;;;;;;8.73;3.10;;;;;;;22.69;43.12;99177.72;4423463;32;20304;-80
2022/09/06 02:01:07;;;;;;;8.47;3.33;;;;;;;22.62;43.31;99173.94;4423506;32;20132;-80
2022/09/06 02:03:43;;;;;;;7.72;3.08;;;;;;;22.60;43.10;99167.88;4423494;32;20397;-80
2022/09/06 02:06:14;;;;;;;9.18;3.30;;;;;;;22.53;43.00;99175.72;4423562;32;20085;-80
2022/09/06 02:08:43;;;;;;;10.25;3.35;;;;;;;22.27;43.45;99175.56;4410819;32;20116;-80
2022/09/06 02:11:09;;;;;;;8.10;3.40;;;;;;;22.24;43.70;99179.38;4423410;32;20621;-80
2022/09/06 02:13:42;;;;;;;9.10;3.50;;;;;;;22.16;44.14;99179.28;4410815;32;20109;-78
2022/09/06 02:16:09;;;;;;;7.55;2.70;;;;;;;22.34;43.92;99180.19;4489310;31;20071;-78
2022/09/06 02:19:16;;;;;;;7.25;3.12;;;;;;;22.39;43.96;99182.44;4489284;31;20163;-78
2022/09/06 02:21:44;;;;;;;11.32;3.28;;;;;;;22.43;44.07;99180.31;4423300;32;20122;-78
2022/09/06 02:24:10;;;;;;;;;;;;;;;22.24;44.19;99168.63;4423705;32;20816;-79
2022/09/06 02:26:39;;;;;;;8.40;2.90;;;;;;;22.37;43.87;99168.31;4410670;32;20001;-79
2022/09/06 02:29:05;;;;;;;8.88;3.10;;;;;;;22.14;43.80;99163.31;4423301;32;20600;-79
2022/09/06 02:31:34;;;;;;;8.20;3.03;;;;;;;22.14;43.89;99159.78;4423182;32;20122;-80
2022/09/06 02:34:00;;;;;;;9.43;3.45;;;;;;;21.95;44.48;99166.91;4423303;32;20101;-78
2022/09/06 02:36:26;;;;;;;9.48;3.37;;;;;;;22.04;44.20;99159.84;4423153;32;20094;-78
2022/09/06 02:38:53;;;;;;;9.13;3.35;;;;;;;21.94;44.51;99164.38;4410456;32;20406;-78
2022/09/06 02:41:21;;;;;;;8.43;2.70;;;;;;;21.95;44.40;99163.41;4423258;32;20101;-79
2022/09/06 02:43:47;;;;;;;8.18;3.10;;;;;;;21.77;45.10;99172.22;4423197;32;20145;-79
2022/09/06 02:46:13;;;;;;;8.15;3.30;;;;;;;21.91;44.71;99164.69;4410471;32;20116;-80
2022/09/06 02:48:39;;;;;;;9.10;3.50;;;;;;;21.77;45.10;99158.81;4423219;32;20082;-80
2022/09/06 02:51:06;;;;;;;8.05;3.20;;;;;;;21.61;45.34;99169.28;4410597;32;20147;-80
2022/09/06 02:53:32;;;;;;;9.93;3.50;;;;;;;21.60;45.69;99173.81;4500571;31;20119;-80
2022/09/06 02:55:58;;;;;;;9.15;3.58;;;;;;;21.65;45.50;99172.53;4503341;31;20435;-80
2022/09/06 02:58:23;;;;;;;8.48;3.20;;;;;;;21.72;45.37;99165.59;4488900;31;20099;-79
2022/09/06 03:00:51;;;;;;;8.65;3.62;;;;;;;21.59;45.69;99163.22;4503191;31;20088;-80
2022/09/06 03:03:16;;;;;;;8.15;3.40;;;;;;;21.63;45.89;99167.31;4488970;31;20080;-80
2022/09/06 03:05:46;;;;;;;9.75;3.60;;;;;;;21.66;45.61;99155.47;4503216;31;20136;-80
2022/09/06 03:08:11;;;;;;;8.02;3.47;;;;;;;21.51;45.43;99160.44;4502065;31;20079;-80
2022/09/06 03:10:37;;;;;;;8.35;3.10;;;;;;;21.54;45.35;99163.66;4503213;31;20148;-80
2022/09/06 03:13:02;;;;;;;8.85;3.87;;;;;;;21.55;45.72;99164.50;4503190;31;20080;-80
2022/09/06 03:15:28;;;;;;;9.05;3.47;;;;;;;21.45;45.55;99161.00;4503019;31;20419;-80
2022/09/06 03:17:57;;;;;;;9.40;3.37;;;;;;;21.46;45.61;99165.38;4488812;31;20100;-80
2022/09/06 03:20:22;;;;;;;7.90;3.10;;;;;;;21.53;45.83;99158.44;4503162;31;20108;-80
2022/09/06 03:22:48;;;;;;;8.48;3.10;;;;;;;21.55;45.91;99164.50;4503134;31;20080;-80
2022/09/06 03:25:13;;;;;;;8.43;3.28;;;;;;;21.60;45.93;99157.72;4503157;31;20106;-80
2022/09/06 03:27:39;;;;;;;7.87;3.08;;;;;;;21.62;46.13;99165.63;4503106;31;20099;-80
2022/09/06 03:30:05;;;;;;;9.55;3.12;;;;;;;21.61;46.27;99158.56;4503133;31;20092;-80
2022/09/06 03:32:31;;;;;;;9.27;3.12;;;;;;;21.59;46.16;99158.72;4503072;31;20084;-80
2022/09/06 03:34:57;;;;;;;8.40;2.97;;;;;;;21.59;46.33;99157.88;4502971;31;20214;-80
2022/09/06 03:37:22;;;;;;;10.20;3.20;;;;;;;21.60;46.16;99159.56;4502969;31;20084;-80
2022/09/06 03:39:47;;;;;;;8.40;3.33;;;;;;;21.56;46.25;99155.50;4502926;31;20089;-80
2022/09/06 03:42:13;;;;;;;8.20;3.25;;;;;;;21.49;45.54;99154.37;4503026;31;20080;-80
2022/09/06 03:44:38;;;;;;;11.32;3.50;;;;;;;21.51;45.54;99155.06;4502944;31;20112;-80
2022/09/06 03:47:04;;;;;;;8.93;3.20;;;;;;;21.47;45.72;99159.03;4502750;31;20421;-80
2022/09/06 03:49:29;;;;;;;6.78;2.75;;;;;;;21.44;45.58;99153.94;4502908;31;20072;-79
2022/09/06 03:51:55;;;;;;;8.60;3.53;;;;;;;21.47;45.78;99151.00;4502926;31;20098;-79
2022/09/06 03:54:20;;;;;;;9.90;3.42;;;;;;;21.46;46.12;99158.19;4502714;31;20152;-81
2022/09/06 03:56:46;;;;;;;10.05;3.45;;;;;;;21.43;45.77;99165.63;4502653;31;20411;-81
2022/09/06 03:59:11;;;;;;;9.30;3.53;;;;;;;21.44;45.61;99165.53;4502854;31;20175;-81
2022/09/06 04:01:37;;;;;;;9.43;3.37;;;;;;;21.27;45.54;99160.88;4488400;31;20130;-80
2022/09/06 04:04:02;;;;;;;8.15;3.10;;;;;;;21.16;45.47;99161.84;4502817;31;20084;-79
2022/09/06 04:06:28;;;;;;;9.98;3.58;;;;;;;21.27;45.54;99161.72;4488345;31;20096;-79
2022/09/06 04:08:53;;;;;;;8.93;3.25;;;;;;;21.31;45.11;99157.75;4502740;31;20102;-79
2022/09/06 04:11:19;;;;;;;9.07;3.37;;;;;;;21.29;45.14;99159.72;4502734;31;20076;-79
2022/09/06 04:13:44;;;;;;;8.55;3.47;;;;;;;21.30;45.28;99158.72;4502705;31;20118;-79
2022/09/06 04:16:10;;;;;;;9.45;3.40;;;;;;;21.19;45.53;99161.59;4502644;31;20103;-81
2022/09/06 04:18:35;;;;;;;9.05;3.30;;;;;;;21.26;45.24;99160.00;4502130;31;20114;-80
2022/09/06 04:21:01;;;;;;;9.82;3.60;;;;;;;21.36;45.06;99160.00;4502588;31;20364;-80
2022/09/06 04:23:28;;;;;;;8.23;3.37;;;;;;;21.37;44.94;99162.53;4502532;31;20131;-80
2022/09/06 04:25:55;;;;;;;9.93;3.55;;;;;;;21.34;44.80;99167.31;4502448;31;20083;-80
2022/09/06 04:28:22;;;;;;;9.48;3.62;;;;;;;21.28;44.43;99170.59;4488333;31;20118;-80
2022/09/06 04:30:55;;;;;;;9.25;3.40;;;;;;;21.11;45.59;99177.50;4502516;31;20064;-80
2022/09/06 04:33:24;;;;;;;9.70;3.40;;;;;;;20.47;45.77;99190.34;4488214;31;20092;-80
2022/09/06 04:36:00;;;;;;;7.87;3.30;;;;;;;20.70;45.51;99179.47;4502314;31;20430;-80
2022/09/06 04:38:27;;;;;;;10.27;3.55;;;;;;;20.83;45.25;99177.37;4502414;31;20118;-80
2022/09/06 04:40:54;;;;;;;8.95;3.53;;;;;;;20.93;45.04;99180.88;4488238;31;20142;-80
2022/09/06 04:43:20;;;;;;;8.35;3.55;;;;;;;21.00;44.29;99176.66;4502370;31;20084;-80
2022/09/06 04:45:46;;;;;;;9.35;3.60;;;;;;;21.13;44.15;99172.84;4487957;31;20140;-79
2022/09/06 04:48:11;;;;;;;8.80;2.80;;;;;;;21.09;43.98;99176.78;4487921;31;20127;-80
2022/09/06 04:50:37;;;;;;;8.82;3.30;;;;;;;21.19;43.77;99172.31;4474798;31;20118;-80
2022/09/06 04:53:03;;;;;;;9.48;3.25;;;;;;;21.09;43.87;99171.44;4487864;31;20080;-80
2022/09/06 04:55:30;;;;;;;8.50;3.50;;;;;;;21.23;43.68;99173.72;4502282;31;20475;-79
2022/09/06 04:57:58;;;;;;;9.55;3.20;;;;;;;21.10;43.63;99170.47;4502225;31;20163;-79
2022/09/06 05:00:25;;;;;;;8.77;3.28;;;;;;;20.94;43.75;99166.53;4488192;31;20138;-79
2022/09/06 05:02:50;;;;;;;9.52;3.28;;;;;;;21.19;43.57;99159.75;4502383;31;20121;-80
2022/09/06 05:05:15;;;;;;;9.80;3.58;;;;;;;21.31;43.45;99156.91;4502121;31;20075;-81
2022/09/06 05:07:41;;;;;;;9.63;3.40;;;;;;;21.38;43.13;99158.88;4487888;31;20158;-80
2022/09/06 05:10:07;;;;;;;9.55;3.37;;;;;;;21.42;42.31;99154.03;4502229;31;20103;-80
2022/09/06 05:12:32;;;;;;;10.18;3.87;;;;;;;21.50;42.86;99159.59;4502112;31;20424;-80
2022/09/06 05:14:58;;;;;;;9.23;3.47;;;;;;;21.32;42.81;99159.44;4502294;31;20082;-80
2022/09/06 05:17:23;;;;;;;8.90;3.17;;;;;;;21.41;43.26;99165.78;4502099;31;20141;-80
2022/09/06 05:19:48;;;;;;;8.90;3.37;;;;;;;21.33;42.58;99157.63;4502151;31;20092;-81
2022/09/06 05:22:14;;;;;;;10.77;3.72;;;;;;;21.34;42.45;99164.66;4501792;31;20104;-80
2022/09/06 05:24:39;;;;;;;8.70;3.33;;;;;;;21.33;42.53;99155.78;4501863;31;20437;-80
2022/09/06 05:27:06;;;;;;;9.48;3.62;;;;;;;20.94;43.18;99171.03;4487649;31;20100;-79
2022/09/06 05:29:31;;;;;;;9.47;3.50;;;;;;;21.14;43.27;99171.88;4502078;31;20115;-79
2022/09/06 05:31:57;;;;;;;13.90;3.55;;;;;;;21.10;43.54;99167.78;4488961;31;20084;-80
2022/09/06 05:34:22;;;;;;;8.93;3.67;;;;;;;21.24;43.03;99164.66;4489466;31;20089;-80
2022/09/06 05:36:48;;;;;;;10.93;3.45;;;;;;;21.51;42.68;99165.78;4503759;31;20118;-81
2022/09/06 05:39:13;;;;;;;8.55;3.25;;;;;;;21.27;43.23;99164.38;4504085;31;20391;-83
2022/09/06 05:41:39;;;;;;;9.88;3.60;;;;;;;21.54;43.22;99161.00;4499110;31;20079;-83
2022/09/06 05:44:04;;;;;;;9.63;3.30;;;;;;;21.60;42.93;99167.59;4496063;31;20084;-83
2022/09/06 05:46:29;;;;;;;9.15;3.75;;;;;;;21.67;42.58;99165.19;4469091;31;20132;-82
2022/09/06 05:49:06;;;;;;;7.50;2.95;;;;;;;21.78;41.94;99165.84;4495047;31;20479;-79
2022/09/06 05:51:32;;;;;;;9.23;3.40;;;;;;;21.87;40.97;99174.88;4480545;31;20142;-80
2022/09/06 05:53:57;;;;;;;10.57;3.47;;;;;;;22.03;39.85;99166.19;4495635;31;20084;-80
2022/09/06 05:56:23;;;;;;;9.55;3.75;;;;;;;22.07;39.65;99164.91;4494189;31;20507;-79
2022/09/06 05:58:49;;;;;;;11.80;3.53;;;;;;;21.98;40.09;99168.44;4495927;31;20116;-80
2022/09/06 06:01:17;;;;;;;10.90;3.50;;;;;;;22.24;39.29;99165.13;4495372;31;20088;-82
2022/09/06 06:04:02;;;;;;;10.10;3.92;;;;;;;22.17;39.19;99170.22;4480108;31;20547;-80
2022/09/06 06:06:30;;;;;;;9.00;3.42;;;;;;;22.50;38.61;99162.56;4484799;31;20126;-81
2022/09/06 06:08:55;;;;;;;9.57;3.20;;;;;;;22.47;38.72;99166.41;4503716;31;20408;-82
2022/09/06 06:11:21;;;;;;;9.80;3.70;;;;;;;22.76;38.58;99163.53;4489226;31;20106;-78
2022/09/06 06:13:47;;;;;;;10.13;3.67;;;;;;;22.55;37.94;99161.13;4489065;31;20079;-80
2022/09/06 06:16:14;;;;;;;10.52;3.72;;;;;;;22.72;37.28;99162.16;4489160;31;20460;-81
2022/09/06 06:18:40;;;;;;;10.05;3.97;;;;;;;23.08;37.44;99162.19;4476393;31;20511;-80
2022/09/06 06:21:26;;;;;;;9.73;3.62;;;;;;;23.01;37.34;99158.41;4503556;31;20084;-80
2022/09/06 06:23:54;;;;;;;9.98;3.55;;;;;;;23.02;37.66;99160.06;4491338;31;20107;-80
2022/09/06 06:26:20;;;;;;;8.70;3.72;;;;;;;23.27;36.65;99158.47;4497452;31;20084;-80
2022/09/06 06:28:46;;;;;;;9.48;3.75;;;;;;;22.80;38.04;99164.06;4490030;31;20092;-78
2022/09/06 06:31:12;;;;;;;10.30;3.90;;;;;;;23.15;37.99;99163.25;4489540;31;20510;-80
2022/09/06 06:33:38;;;;;;;9.75;3.90;;;;;;;23.45;37.76;99157.59;4498130;31;20084;-80
2022/09/06 06:36:20;;;;;;;11.45;3.90;;;;;;;23.35;37.37;99163.94;4495144;31;20165;-79
2022/09/06 06:38:45;;;;;;;10.40;3.60;;;;;;;23.71;36.62;99163.81;4486277;32;20161;-80
2022/09/06 06:41:13;;;;;;;10.30;4.50;;;;;;;23.79;36.74;99165.75;4468555;32;20116;-80
2022/09/06 06:43:38;;;;;;;;;;;;;;;23.90;36.16;99161.94;4486508;32;20089;-79
2022/09/06 06:46:08;;;;;;;12.57;4.30;;;;;;;23.75;36.32;99167.88;4495246;31;19983;-80
2022/09/06 06:48:35;;;;;;;11.73;4.50;;;;;;;23.52;36.21;99164.88;4493828;31;20134;-80
2022/09/06 06:51:00;;;;;;;11.55;4.15;;;;;;;23.08;37.17;99180.16;4479958;31;20170;-80
2022/09/06 06:53:26;;;;;;;16.30;5.95;;;;;;;23.45;36.75;99179.09;4496305;31;20076;-79
2022/09/06 06:55:51;;;;;;;21.48;8.40;;;;;;;23.79;36.14;99173.81;4476651;32;20158;-80
2022/09/06 06:58:17;;;;;;;10.45;4.20;;;;;;;23.90;36.23;99178.09;4487170;31;20127;-80
2022/09/06 07:00:43;;;;;;;12.82;4.82;;;;;;;24.00;35.86;99178.81;4485939;32;20110;-80
2022/09/06 07:03:10;;;;;;;11.10;4.20;;;;;;;24.07;36.26;99171.78;4486069;32;20621;-80
2022/09/06 07:05:35;;;;;;;11.05;4.22;;;;;;;23.89;36.61;99179.94;4485925;32;20454;-80
2022/09/06 07:08:01;;;;;;;14.07;4.60;;;;;;;24.14;36.25;99174.66;4500192;31;20087;-80
2022/09/06 07:10:27;;;;;;;10.98;4.75;;;;;;;24.37;35.74;99174.94;4490183;31;20096;-86
2022/09/06 07:12:53;;;;;;;13.20;4.03;;;;;;;24.39;35.58;99186.37;4497016;31;20093;-81
2022/09/06 07:15:18;;;;;;;10.23;3.80;;;;;;;24.17;35.49;99176.22;4481547;31;20474;-83
2022/09/06 07:17:44;;;;;;;9.75;3.62;;;;;;;24.48;35.23;99174.62;4485645;32;20088;-82
2022/09/06 07:20:10;;;;;;;9.82;3.95;;;;;;;24.67;35.13;99183.50;4469806;32;20092;-82
2022/09/06 07:22:36;;;;;;;11.10;4.07;;;;;;;24.41;34.47;99178.16;4484652;32;20151;-82
2022/09/06 07:25:04;;;;;;;11.18;3.72;;;;;;;24.66;34.51;99174.53;4486252;31;20112;-82
2022/09/06 07:27:30;;;;;;;13.90;4.60;;;;;;;24.73;34.65;99174.75;4486503;31;20107;-82
2022/09/06 07:29:56;;;;;;;12.60;3.97;;;;;;;24.48;34.50;99181.88;4484179;32;20431;-82
2022/09/06 07:32:21;;;;;;;11.80;3.70;;;;;;;24.61;34.54;99184.13;4486617;32;20093;-82
2022/09/06 07:34:47;;;;;;;8.60;3.40;;;;;;;24.79;33.94;99181.31;4485579;32;20133;-82
2022/09/06 07:37:12;;;;;;;12.98;3.92;;;;;;;24.91;34.10;99188.91;4486803;31;20178;-82
2022/09/06 07:39:38;;;;;;;9.60;3.90;;;;;;;24.92;33.94;99174.44;4486181;32;20099;-82
2022/09/06 07:42:04;;;;;;;11.02;4.57;;;;;;;24.80;33.90;99174.91;4485841;32;20598;-82
2022/09/06 07:44:29;;;;;;;10.63;4.07;;;;;;;24.35;34.34;99182.34;4487060;32;20101;-82
2022/09/06 07:46:55;;;;;;;9.52;3.90;;;;;;;24.44;34.60;99184.06;4485844;32;20088;-82
2022/09/06 07:49:20;;;;;;;11.80;4.03;;;;;;;24.61;34.33;99178.75;4487030;31;20123;-82
2022/09/06 07:51:48;;;;;;;10.82;4.18;;;;;;;24.84;34.11;99181.66;4485907;32;20360;-82
2022/09/06 07:54:14;;;;;;;10.57;4.40;;;;;;;25.05;33.91;99178.47;4485307;32;20502;-82
2022/09/06 07:56:39;;;;;;;11.12;3.75;;;;;;;25.17;33.42;99177.16;4486831;31;20112;-82
2022/09/06 07:59:05;;;;;;;9.60;4.10;;;;;;;25.26;33.22;99186.94;4486022;32;20099;-82
2022/09/06 08:01:35;;;;;;;10.40;4.32;;;;;;;24.98;34.41;99182.88;4485800;32;20378;-82
2022/09/06 08:04:06;;;;;;;9.30;4.22;;;;;;;24.40;34.63;99187.25;4485775;32;20108;-82
2022/09/06 08:06:34;;;;;;;12.25;4.35;;;;;;;24.57;34.79;99190.84;4486017;32;20092;-82
2022/09/06 08:09:00;;;;;;;10.57;4.20;;;;;;;24.79;34.25;99186.72;4486995;31;20155;-82
2022/09/06 08:11:28;;;;;;;11.27;4.03;;;;;;;24.46;34.57;99184.72;4486985;31;20107;-82
2022/09/06 08:13:55;;;;;;;9.90;4.30;;;;;;;24.85;34.90;99177.97;4485776;32;20108;-82
2022/09/06 08:16:21;;;;;;;12.68;4.45;;;;;;;25.34;34.40;99185.28;4485720;32;20087;-82
2022/09/06 08:18:58;;;;;;;12.52;4.18;;;;;;;25.58;33.35;99185.25;4485736;32;20111;-82
2022/09/06 08:21:25;;;;;;;11.57;4.30;;;;;;;25.75;32.83;99169.87;4485746;32;20189;-82
2022/09/06 08:24:02;;;;;;;11.10;4.03;;;;;;;25.83;32.65;99167.16;4485684;32;20180;-83
2022/09/06 08:26:29;;;;;;;9.02;3.90;;;;;;;25.93;32.85;99166.16;4485706;32;20123;-82
2022/09/06 08:29:00;;;;;;;12.10;4.12;;;;;;;25.39;33.50;99172.13;4486823;31;20357;-82
2022/09/06 08:31:27;;;;;;;9.57;4.25;;;;;;;25.59;33.65;99165.34;4485849;32;20111;-82
2022/09/06 08:33:53;;;;;;;11.07;4.47;;;;;;;25.55;33.11;99164.00;4487018;31;20100;-82
2022/09/06 08:36:18;;;;;;;10.30;4.28;;;;;;;25.55;33.81;99161.31;4485621;32;20126;-82
2022/09/06 08:38:44;;;;;;;9.98;4.25;;;;;;;25.53;33.29;99167.91;4485502;32;20119;-83
2022/09/06 08:41:13;;;;;;;10.43;4.53;;;;;;;25.00;34.46;99170.91;4486690;32;20515;-82
2022/09/06 08:43:44;;;;;;;11.57;4.07;;;;;;;25.42;34.25;99161.84;4486654;31;20434;-82
2022/09/06 08:46:09;;;;;;;12.20;4.57;;;;;;;25.70;34.05;99164.16;4485490;32;20104;-82
2022/09/06 08:48:38;;;;;;;12.23;5.00;;;;;;;25.84;33.46;99160.72;4485462;32;20107;-83
2022/09/06 08:51:38;;;;;;;9.93;4.10;;;;;;;25.43;34.51;99168.91;4472393;32;20098;-82
2022/09/06 08:54:10;;;;;;;11.57;4.40;;;;;;;25.66;34.50;99168.22;4486610;31;20559;-82
2022/09/06 08:56:45;;;;;;;9.93;4.53;;;;;;;25.64;34.61;99162.16;4471964;32;20100;-82
2022/09/06 08:59:12;;;;;;;10.77;4.70;;;;;;;25.79;33.87;99159.59;4485398;32;20100;-82
2022/09/06 09:02:07;;;;;;;12.23;4.50;;;;;;;25.97;33.65;99157.53;4485267;32;20080;-82
2022/09/06 09:04:33;;;;;;;11.52;4.28;;;;;;;25.84;33.91;99159.91;4486425;31;20463;-82
2022/09/06 09:07:15;;;;;;;11.32;4.78;;;;;;;25.96;33.67;99155.87;4486600;32;20160;-82
2022/09/06 09:09:41;;;;;;;11.52;4.80;;;;;;;26.04;33.83;99152.28;4487149;32;20143;-82
2022/09/06 09:12:07;;;;;;;11.43;4.00;;;;;;;26.17;33.40;99159.81;4486894;32;20478;-83
2022/09/06 09:14:36;;;;;;;10.43;4.53;;;;;;;26.14;34.20;99157.50;4487035;32;20100;-82
2022/09/06 09:17:14;;;;;;;13.23;4.90;;;;;;;26.46;33.55;99154.63;4487336;32;20119;-82
2022/09/06 09:19:40;;;;;;;10.60;3.90;;;;;;;26.73;32.67;99146.22;4487117;32;20102;-82
2022/09/06 09:22:06;;;;;;;14.15;5.22;;;;;;;26.90;32.92;99146.97;4473922;32;20107;-82
2022/09/06 09:24:31;;;;;;;11.25;4.40;;;;;;;27.04;32.89;99140.75;4486878;32;20407;-83
2022/09/06 09:27:09;;;;;;;10.75;4.53;;;;;;;27.17;32.26;99142.84;4486927;32;20462;-83
2022/09/06 09:29:53;;;;;;;11.48;4.53;;;;;;;27.19;32.42;99138.94;4488199;31;20111;-82
2022/09/06 09:32:39;;;;;;;13.90;4.65;;;;;;;27.16;32.44;99135.75;4488119;31;20120;-83
2022/09/06 09:35:35;;;;;;;12.13;4.78;;;;;;;26.79;33.05;99131.97;4488464;31;20123;-83
2022/09/06 09:38:09;;;;;;;11.63;4.60;;;;;;;27.14;32.37;99126.97;4486927;32;20172;-83
2022/09/06 09:40:50;;;;;;;10.60;4.87;;;;;;;27.16;32.27;99120.38;4486861;32;20123;-82
2022/09/06 09:43:20;;;;;;;11.90;4.78;;;;;;;26.31;33.57;99124.00;4486916;32;20106;-82
2022/09/06 09:46:16;;;;;;;9.80;4.80;;;;;;;26.71;33.14;99118.53;4487977;31;20123;-82
2022/09/06 09:49:12;;;;;;;12.18;4.47;;;;;;;26.92;33.14;99117.87;4475820;32;20505;-82
2022/09/06 09:51:45;;;;;;;11.00;4.70;;;;;;;26.23;34.40;99115.91;4423701;32;20377;-82
2022/09/06 09:54:12;;;;;;;11.43;4.78;;;;;;;26.23;34.07;99115.91;4423772;32;20159;-82
2022/09/06 09:56:52;;;;;;;12.75;4.43;;;;;;;26.49;33.66;99105.62;4423535;32;20120;-82
2022/09/06 09:59:32;;;;;;;12.30;4.18;;;;;;;26.87;33.46;99103.03;4423899;32;20492;-83
2022/09/06 10:02:00;;;;;;;11.77;4.97;;;;;;;26.88;34.02;99102.00;4411053;32;20081;-83
2022/09/06 10:04:43;;;;;;;11.73;4.40;;;;;;;27.02;33.59;99091.41;4411100;32;20094;-83
2022/09/06 10:07:13;;;;;;;11.12;4.75;;;;;;;27.19;33.57;99097.53;4398455;32;20140;-82
2022/09/06 10:09:42;;;;;;;13.80;5.00;;;;;;;27.35;33.39;99093.84;4423518;32;20128;-82
2022/09/06 10:12:14;;;;;;;13.25;5.10;;;;;;;27.40;32.63;99083.31;4410717;32;20132;-82
2022/09/06 10:14:42;;;;;;;10.85;5.15;;;;;;;27.17;33.06;99084.19;4410871;32;20846;-82
2022/09/06 10:17:07;;;;;;;11.00;4.40;;;;;;;27.16;33.35;99082.53;4410309;32;20442;-83
2022/09/06 10:19:36;;;;;;;8.95;4.55;;;;;;;27.39;33.25;99085.19;4410630;32;20163;-82
2022/09/06 10:22:20;;;;;;;10.93;4.70;;;;;;;27.25;33.18;99080.59;4423422;32;20104;-82
2022/09/06 10:25:07;;;;;;;10.95;4.25;;;;;;;27.05;33.61;99080.25;4423491;32;20081;-82
2022/09/06 10:27:32;;;;;;;10.45;4.85;;;;;;;27.10;33.95;99077.00;4428326;32;20314;-82
2022/09/06 10:30:04;;;;;;;13.85;4.93;;;;;;;27.15;33.60;99071.87;4486811;32;20170;-82
2022/09/06 10:33:00;;;;;;;10.13;4.68;;;;;;;26.99;34.26;99067.47;4486679;32;20166;-82
2022/09/06 10:35:36;;;;;;;10.35;4.62;;;;;;;27.10;34.64;99067.03;4487668;31;20085;-82
2022/09/06 10:38:15;;;;;;;12.70;4.65;;;;;;;27.18;34.22;99058.00;4486538;32;20116;-82
2022/09/06 10:41:00;;;;;;;11.43;4.10;;;;;;;27.34;33.97;99057.03;4487666;31;20091;-82
2022/09/06 10:43:31;;;;;;;10.48;4.50;;;;;;;27.16;34.66;99062.72;4487549;31;20103;-82
2022/09/06 10:46:10;;;;;;;11.55;5.00;;;;;;;27.02;34.51;99053.56;4486487;32;20072;-82
2022/09/06 10:48:45;;;;;;;11.88;5.30;;;;;;;27.34;34.24;99048.91;4486322;32;20130;-82
2022/09/06 10:51:25;;;;;;;10.77;4.93;;;;;;;27.47;33.82;99049.09;4487671;31;20111;-82
2022/09/06 10:54:05;;;;;;;12.43;4.72;;;;;;;27.36;34.02;99044.97;4487474;32;20474;-82
2022/09/06 10:57:07;;;;;;;12.75;4.15;;;;;;;27.07;35.39;99052.00;4486199;32;20077;-82
2022/09/06 10:59:44;;;;;;;10.68;4.10;;;;;;;27.43;34.82;99047.81;4410567;32;20213;-82
2022/09/06 11:02:32;;;;;;;9.32;3.95;;;;;;;27.57;34.79;99048.81;4410489;32;20122;-82
2022/09/06 11:05:03;;;;;;;;;;;;;;;27.56;34.82;99052.53;4410804;32;20189;-82
2022/09/06 11:07:30;;;;;;;11.02;4.47;;;;;;;27.75;34.32;99051.13;4410665;32;19977;-82
2022/09/06 11:09:56;;;;;;;9.15;3.90;;;;;;;27.74;34.15;99053.00;4410428;32;20149;-82
2022/09/06 11:12:43;;;;;;;10.75;3.87;;;;;;;27.89;34.36;99055.72;4423102;32;20144;-82
2022/09/06 11:15:12;;;;;;;8.80;3.85;;;;;;;28.05;34.41;99054.69;4422954;32;20528;-83
2022/09/06 11:17:43;;;;;;;10.23;3.50;;;;;;;28.03;34.74;99048.63;4410102;32;20143;-83
2022/09/06 11:20:31;;;;;;;10.73;3.53;;;;;;;28.18;34.14;99035.00;4410406;32;20098;-82
2022/09/06 11:23:03;;;;;;;9.63;4.12;;;;;;;28.22;33.80;99039.00;4410318;32;20097;-82
2022/09/06 11:25:28;;;;;;;9.10;3.60;;;;;;;28.00;34.38;99033.56;4410258;32;20086;-83
2022/09/06 11:27:55;;;;;;;10.70;4.20;;;;;;;28.09;33.99;99026.19;4422174;32;20136;-83
2022/09/06 11:30:24;;;;;;;8.65;3.55;;;;;;;28.14;34.00;99020.19;4409957;32;20171;-82
2022/09/06 11:32:51;;;;;;;9.68;3.87;;;;;;;28.35;33.71;99022.06;4423102;32;20198;-82
2022/09/06 11:35:22;;;;;;;7.85;3.60;;;;;;;28.56;32.82;99019.41;4453343;32;20570;-82
2022/09/06 11:37:58;;;;;;;9.73;4.10;;;;;;;28.59;33.25;99020.91;4485980;32;20084;-83
2022/09/06 11:40:27;;;;;;;10.00;3.75;;;;;;;28.52;33.18;99015.41;4486067;32;20096;-82
2022/09/06 11:42:52;;;;;;;9.95;3.60;;;;;;;28.63;33.52;99008.63;4487248;31;20105;-82